createdAt,value
2023-01-21T00:00:58.207Z,-2.47
2023-01-21T00:03:25.001Z,-2.47
2023-01-21T00:05:51.637Z,-2.48
2023-01-21T00:08:18.209Z,-2.53
2023-01-21T00:10:44.834Z,-2.50
2023-01-21T00:13:11.401Z,-2.53
2023-01-21T00:15:50.471Z,-2.52
2023-01-21T00:18:17.062Z,-2.46
2023-01-21T00:20:45.538Z,-2.46
2023-01-21T00:23:12.983Z,-2.48
2023-01-21T00:25:39.539Z,-2.57
2023-01-21T00:28:05.998Z,-2.43
2023-01-21T00:30:33.296Z,-2.46
2023-01-21T00:32:59.795Z,-2.43
2023-01-21T00:35:26.300Z,-2.44
2023-01-21T00:37:52.860Z,-2.41
2023-01-21T00:40:19.473Z,-2.41
2023-01-21T00:42:46.223Z,-2.40
2023-01-21T00:45:12.871Z,-2.40
2023-01-21T00:47:39.425Z,-2.40
2023-01-21T00:50:06.663Z,-2.39
2023-01-21T00:52:33.176Z,-2.40
2023-01-21T00:54:59.626Z,-2.39
2023-01-21T00:57:26.045Z,-2.41
2023-01-21T00:59:53.519Z,-2.39
2023-01-21T01:02:20.138Z,-2.41
2023-01-21T01:04:46.627Z,-2.42
2023-01-21T01:07:13.111Z,-2.41
2023-01-21T01:09:39.600Z,-2.47
2023-01-21T01:12:06.486Z,-2.45
2023-01-21T01:14:33.006Z,-2.44
2023-01-21T01:16:59.495Z,-2.45
2023-01-21T01:19:26.244Z,-2.44
2023-01-21T01:21:52.720Z,-2.44
2023-01-21T01:24:19.189Z,-2.54
2023-01-21T01:26:45.620Z,-2.46
2023-01-21T01:29:16.171Z,-2.47
2023-01-21T01:31:44.187Z,-2.54
2023-01-21T01:34:10.734Z,-2.50
2023-01-21T01:36:37.296Z,-2.53
2023-01-21T01:39:05.111Z,-2.54
2023-01-21T01:41:34.983Z,-2.53
2023-01-21T01:44:23.261Z,-2.55
2023-01-21T01:46:50.641Z,-2.56
2023-01-21T01:49:21.443Z,-2.58
2023-01-21T01:51:53.626Z,-2.58
2023-01-21T01:54:25.743Z,-2.59
2023-01-21T01:56:56.410Z,-2.61
2023-01-21T01:59:23.557Z,-2.62
2023-01-21T02:01:50.229Z,-2.63
2023-01-21T02:04:21.087Z,-2.61
2023-01-21T02:06:48.232Z,-2.60
2023-01-21T02:09:14.728Z,-2.61
2023-01-21T02:11:41.543Z,-2.62
2023-01-21T02:14:08.246Z,-2.64
2023-01-21T02:16:51.029Z,-2.65
2023-01-21T02:19:42.481Z,-2.63
2023-01-21T02:22:43.686Z,-2.66
2023-01-21T02:25:13.106Z,-2.62
2023-01-21T02:28:08.796Z,-2.62
2023-01-21T02:30:41.399Z,-2.64
2023-01-21T02:33:20.065Z,-2.66
2023-01-21T02:35:59.745Z,-2.67
2023-01-21T02:38:35.942Z,-2.66
2023-01-21T02:41:11.275Z,-2.73
2023-01-21T02:43:59.643Z,-2.67
2023-01-21T02:46:49.458Z,-2.67
2023-01-21T02:49:28.534Z,-2.68
2023-01-21T02:51:55.151Z,-2.68
2023-01-21T02:54:40.207Z,-2.69
2023-01-21T02:57:14.798Z,-2.70
2023-01-21T02:59:47.735Z,-2.78
2023-01-21T03:02:36.529Z,-2.71
2023-01-21T03:05:03.881Z,-2.71
2023-01-21T03:07:34.301Z,-2.70
2023-01-21T03:10:09.339Z,-2.73
2023-01-21T03:12:51.089Z,-2.72
2023-01-21T03:15:47.948Z,-2.73
2023-01-21T03:18:14.356Z,-2.78
2023-01-21T03:20:45.565Z,-2.81
2023-01-21T03:23:22.355Z,-2.81
2023-01-21T03:25:50.907Z,-2.92
2023-01-21T03:28:24.038Z,-2.85
2023-01-21T03:30:57.732Z,-2.90
2023-01-21T03:33:25.199Z,-2.97
2023-01-21T03:35:55.728Z,-2.93
2023-01-21T03:38:30.263Z,-2.93
2023-01-21T03:41:05.852Z,-2.98
2023-01-21T03:43:32.374Z,-3.01
2023-01-21T03:46:07.112Z,-3.01
2023-01-21T03:48:44.738Z,-3.01
2023-01-21T03:51:17.009Z,-3.03
2023-01-21T03:53:43.801Z,-3.14
2023-01-21T03:56:10.345Z,-3.04
2023-01-21T03:58:39.869Z,-3.05
2023-01-21T04:01:06.372Z,-3.05
2023-01-21T04:03:32.966Z,-3.07
2023-01-21T04:05:59.416Z,-3.08
2023-01-21T04:08:25.853Z,-3.12
2023-01-21T04:10:52.304Z,-3.10
2023-01-21T04:13:18.788Z,-3.12
2023-01-21T04:15:45.305Z,-3.14
2023-01-21T04:18:11.778Z,-3.12
2023-01-21T04:20:38.252Z,-3.11
2023-01-21T04:23:04.728Z,-3.15
2023-01-21T04:25:31.168Z,-3.14
2023-01-21T04:27:57.683Z,-3.15
2023-01-21T04:30:24.177Z,-3.14
2023-01-21T04:32:50.708Z,-3.16
2023-01-21T04:35:17.165Z,-3.16
2023-01-21T04:37:43.650Z,-3.18
2023-01-21T04:40:11.019Z,-3.21
2023-01-21T04:42:37.522Z,-3.42
2023-01-21T04:45:04.433Z,-3.23
2023-01-21T04:47:30.944Z,-3.21
2023-01-21T04:49:57.408Z,-3.21
2023-01-21T04:52:23.966Z,-3.23
2023-01-21T04:54:50.432Z,-3.29
2023-01-21T04:57:16.976Z,-3.23
2023-01-21T04:59:43.476Z,-3.28
2023-01-21T05:02:10.071Z,-3.29
2023-01-21T05:04:36.747Z,-3.29
2023-01-21T05:07:03.329Z,-3.34
2023-01-21T05:09:29.750Z,-3.33
2023-01-21T05:11:56.297Z,-3.31
2023-01-21T05:14:22.758Z,-3.33
2023-01-21T05:16:49.243Z,-3.34
2023-01-21T05:19:15.777Z,-3.37
2023-01-21T05:21:42.281Z,-3.40
2023-01-21T05:24:08.882Z,-3.46
2023-01-21T05:26:35.672Z,-3.58
2023-01-21T05:29:02.131Z,-3.52
2023-01-21T05:31:29.004Z,-3.62
2023-01-21T05:33:57.371Z,-3.57
2023-01-21T05:36:24.111Z,-3.59
2023-01-21T05:38:50.603Z,-3.58
2023-01-21T05:41:17.093Z,-3.61
2023-01-21T05:43:43.713Z,-3.58
2023-01-21T05:46:10.502Z,-3.57
2023-01-21T05:48:37.083Z,-3.57
2023-01-21T05:51:03.739Z,-3.56
2023-01-21T05:53:30.231Z,-3.59
2023-01-21T05:55:57.728Z,-3.56
2023-01-21T05:58:25.614Z,-3.54
2023-01-21T06:00:52.612Z,-3.54
2023-01-21T06:03:19.421Z,-3.53
2023-01-21T06:05:46.974Z,-3.65
2023-01-21T06:08:13.581Z,-3.58
2023-01-21T06:10:40.103Z,-3.64
2023-01-21T06:13:06.779Z,-3.70
2023-01-21T06:15:33.745Z,-3.62
2023-01-21T06:18:01.252Z,-3.63
2023-01-21T06:20:31.492Z,-3.67
2023-01-21T06:23:00.634Z,-3.69
2023-01-21T06:25:27.993Z,-3.72
2023-01-21T06:27:55.907Z,-3.70
2023-01-21T06:30:23.791Z,-3.76
2023-01-21T06:32:50.560Z,-3.76
2023-01-21T06:35:17.512Z,-3.77
2023-01-21T06:37:45.136Z,-3.73
2023-01-21T06:40:12.989Z,-3.73
2023-01-21T06:42:39.857Z,-3.75
2023-01-21T06:45:06.970Z,-3.79
2023-01-21T06:47:33.470Z,-3.79
2023-01-21T06:49:59.927Z,-3.78
2023-01-21T06:52:26.402Z,-3.86
2023-01-21T06:54:52.866Z,-3.86
2023-01-21T06:57:19.368Z,-3.85
2023-01-21T06:59:45.882Z,-3.89
2023-01-21T07:02:13.136Z,-3.89
2023-01-21T07:04:39.606Z,-3.99
2023-01-21T07:07:06.158Z,-3.91
2023-01-21T07:09:32.607Z,-3.91
2023-01-21T07:11:59.060Z,-3.93
2023-01-21T07:14:25.563Z,-3.92
2023-01-21T07:16:52.079Z,-3.91
2023-01-21T07:19:18.801Z,-3.94
2023-01-21T07:21:45.429Z,-3.93
2023-01-21T07:24:11.993Z,-3.89
2023-01-21T07:26:38.510Z,-3.90
2023-01-21T07:29:06.493Z,-3.90
2023-01-21T07:31:33.786Z,-3.88
2023-01-21T07:34:00.435Z,-3.88
2023-01-21T07:36:27.635Z,-3.92
2023-01-21T07:38:55.013Z,-3.85
2023-01-21T07:41:21.654Z,-3.85
2023-01-21T07:43:48.813Z,-3.82
2023-01-21T07:46:20.076Z,-3.82
2023-01-21T07:48:51.104Z,-3.82
2023-01-21T07:51:21.563Z,-3.88
2023-01-21T07:53:48.378Z,-3.82
2023-01-21T07:56:16.261Z,-3.80
2023-01-21T07:58:42.778Z,-3.78
2023-01-21T08:01:09.983Z,-3.74
2023-01-21T08:03:37.651Z,-3.72
2023-01-21T08:06:07.295Z,-3.70
2023-01-21T08:08:34.068Z,-3.69
2023-01-21T08:11:00.598Z,-3.64
2023-01-21T08:13:27.132Z,-3.68
2023-01-21T08:15:55.970Z,-3.56
2023-01-21T08:18:23.576Z,-3.50
2023-01-21T08:20:58.186Z,-3.45
2023-01-21T08:23:26.147Z,-3.39
2023-01-21T08:25:53.041Z,-3.36
2023-01-21T08:28:19.683Z,-3.28
2023-01-21T08:30:46.180Z,-3.24
2023-01-21T08:33:12.715Z,-3.16
2023-01-21T08:35:39.304Z,-3.11
2023-01-21T08:38:06.044Z,-3.05
2023-01-21T08:40:32.549Z,-3.01
2023-01-21T08:43:00.244Z,-2.93
2023-01-21T08:45:27.307Z,-2.93
2023-01-21T08:47:54.447Z,-2.81
2023-01-21T08:50:21.849Z,-2.74
2023-01-21T08:52:55.730Z,-2.68
2023-01-21T08:55:25.260Z,-2.64
2023-01-21T08:57:52.120Z,-2.55
2023-01-21T09:00:19.927Z,-2.48
2023-01-21T09:02:46.541Z,-2.45
2023-01-21T09:05:13.125Z,-2.40
2023-01-21T09:07:39.639Z,-2.33
2023-01-21T09:10:06.827Z,-2.25
2023-01-21T09:12:33.839Z,-2.18
2023-01-21T09:15:00.346Z,-2.27
2023-01-21T09:17:27.174Z,-2.01
2023-01-21T09:19:55.483Z,-1.92
2023-01-21T09:22:22.109Z,-1.96
2023-01-21T09:24:48.618Z,-1.83
2023-01-21T09:27:15.102Z,-1.79
2023-01-21T09:29:41.621Z,-1.75
2023-01-21T09:32:08.239Z,-1.75
2023-01-21T09:34:35.846Z,-1.72
2023-01-21T09:37:03.112Z,-1.70
2023-01-21T09:39:29.618Z,-1.67
2023-01-21T09:41:56.766Z,-1.65
2023-01-21T09:44:39.984Z,-1.61
2023-01-21T09:47:12.506Z,-1.64
2023-01-21T09:49:44.096Z,-1.63
2023-01-21T09:52:40.539Z,-1.61
2023-01-21T09:55:18.318Z,-1.59
2023-01-21T09:57:48.045Z,-1.57
2023-01-21T10:00:20.589Z,-1.56
2023-01-21T10:03:08.267Z,-1.50
2023-01-21T10:05:50.856Z,-1.48
2023-01-21T10:08:31.899Z,-1.50
2023-01-21T10:11:01.429Z,-1.43
2023-01-21T10:13:43.533Z,-1.40
2023-01-21T10:16:39.144Z,-1.36
2023-01-21T10:19:10.175Z,-1.34
2023-01-21T10:21:48.508Z,-1.28
2023-01-21T10:24:24.157Z,-1.28
2023-01-21T10:26:53.693Z,-1.25
2023-01-21T10:29:24.327Z,-1.21
2023-01-21T10:32:02.890Z,-1.17
2023-01-21T10:34:31.594Z,-1.10
2023-01-21T10:37:13.106Z,-1.07
2023-01-21T10:39:56.976Z,-1.04
2023-01-21T10:42:51.506Z,-1.03
2023-01-21T10:45:29.725Z,-1.04
2023-01-21T10:48:07.847Z,-1.05
2023-01-21T10:50:59.119Z,-1.02
2023-01-21T10:53:52.739Z,-1.03
2023-01-21T10:56:39.960Z,-1.06
2023-01-21T10:59:11.223Z,-1.00
2023-01-21T11:01:44.607Z,-1.07
2023-01-21T11:04:19.944Z,-0.98
2023-01-21T11:06:54.379Z,-0.97
2023-01-21T11:09:24.644Z,-0.87
2023-01-21T11:11:51.168Z,-0.92
2023-01-21T11:14:19.344Z,-0.90
2023-01-21T11:16:49.957Z,-0.84
2023-01-21T11:19:30.943Z,-0.80
2023-01-21T11:22:06.121Z,-0.81
2023-01-21T11:24:43.434Z,-0.69
2023-01-21T11:27:18.620Z,-0.71
2023-01-21T11:29:47.754Z,-0.65
2023-01-21T11:32:25.941Z,-0.68
2023-01-21T11:35:04.701Z,-0.65
2023-01-21T11:37:33.437Z,-0.67
2023-01-21T11:40:14.959Z,-0.57
2023-01-21T11:42:50.579Z,-0.54
2023-01-21T11:45:32.383Z,-0.53
2023-01-21T11:48:00.483Z,-0.53
2023-01-21T11:50:30.424Z,-0.55
2023-01-21T11:53:09.134Z,-0.47
2023-01-21T11:55:46.560Z,-0.45
2023-01-21T11:58:40.249Z,-0.37
2023-01-21T12:01:11.134Z,-0.33
2023-01-21T12:03:46.090Z,-0.29
2023-01-21T12:06:25.280Z,-0.24
2023-01-21T12:08:55.893Z,-0.16
2023-01-21T12:11:25.150Z,-0.12
2023-01-21T12:14:17.606Z,-0.08
2023-01-21T12:17:01.977Z,-0.02
2023-01-21T12:19:37.326Z,0.09
2023-01-21T12:22:30.867Z,0.15
2023-01-21T12:25:11.903Z,0.21
2023-01-21T12:28:10.007Z,0.24
2023-01-21T12:31:21.633Z,0.20
2023-01-21T12:33:56.894Z,0.15
2023-01-21T12:36:36.221Z,0.23
2023-01-21T12:39:26.968Z,0.25
2023-01-21T12:42:15.637Z,0.28
2023-01-21T12:44:50.791Z,0.26
2023-01-21T12:47:37.217Z,0.36
2023-01-21T12:50:36.174Z,0.37
2023-01-21T12:53:40.420Z,0.40
2023-01-21T12:56:55.370Z,0.42
2023-01-21T12:59:29.516Z,0.41
2023-01-21T13:02:05.625Z,0.40
2023-01-21T13:04:53.907Z,0.40
2023-01-21T13:07:57.743Z,0.43
2023-01-21T13:10:29.216Z,0.43
2023-01-21T13:13:05.340Z,0.41
2023-01-21T13:15:38.178Z,0.42
2023-01-21T13:18:13.049Z,0.44
2023-01-21T13:20:47.688Z,0.42
2023-01-21T13:23:21.011Z,0.48
2023-01-21T13:25:47.509Z,0.51
2023-01-21T13:28:17.350Z,0.43
2023-01-21T13:31:16.425Z,0.54
2023-01-21T13:33:48.838Z,0.57
2023-01-21T13:36:26.672Z,0.53
2023-01-21T13:38:59.613Z,0.54
2023-01-21T13:41:41.449Z,0.55
2023-01-21T13:44:36.287Z,0.53
2023-01-21T13:47:38.201Z,0.54
2023-01-21T13:50:20.733Z,0.51
2023-01-21T13:53:08.198Z,0.52
2023-01-21T13:56:01.979Z,0.55
2023-01-21T13:58:39.284Z,0.59
2023-01-21T14:01:20.207Z,0.59
2023-01-21T14:04:03.280Z,0.61
2023-01-21T14:06:36.702Z,0.59
2023-01-21T14:09:33.168Z,0.61
2023-01-21T14:12:13.220Z,0.60
2023-01-21T14:15:16.590Z,0.65
2023-01-21T14:17:43.293Z,0.63
2023-01-21T14:20:34.696Z,0.65
2023-01-21T14:23:26.725Z,0.52
2023-01-21T14:26:10.222Z,0.50
2023-01-21T14:29:09.017Z,0.48
2023-01-21T14:31:38.785Z,0.54
2023-01-21T14:34:28.648Z,0.57
2023-01-21T14:37:07.394Z,0.57
2023-01-21T14:39:33.828Z,0.55
2023-01-21T14:42:10.723Z,0.55
2023-01-21T14:45:01.915Z,0.54
2023-01-21T14:47:31.120Z,0.47
2023-01-21T14:49:59.248Z,0.50
2023-01-21T14:52:47.378Z,0.47
2023-01-21T14:55:29.531Z,0.46
2023-01-21T14:57:57.634Z,0.50
2023-01-21T15:00:30.166Z,0.49
2023-01-21T15:03:15.180Z,0.50
2023-01-21T15:05:48.277Z,0.37
2023-01-21T15:08:28.048Z,0.45
2023-01-21T15:11:06.398Z,0.43
2023-01-21T15:13:32.916Z,0.42
2023-01-21T15:16:31.111Z,0.38
2023-01-21T15:19:10.051Z,0.38
2023-01-21T15:21:42.686Z,0.37
2023-01-21T15:24:39.396Z,0.37
2023-01-21T15:27:21.072Z,0.34
2023-01-21T15:29:53.992Z,0.31
2023-01-21T15:32:40.613Z,0.36
2023-01-21T15:35:33.038Z,0.38
2023-01-21T15:38:01.841Z,0.38
2023-01-21T15:40:44.287Z,0.38
2023-01-21T15:43:16.327Z,0.37
2023-01-21T15:45:57.707Z,0.36
2023-01-21T15:48:40.268Z,0.32
2023-01-21T15:51:19.596Z,0.27
2023-01-21T15:54:05.684Z,0.33
2023-01-21T15:56:48.751Z,0.32
2023-01-21T15:59:37.273Z,0.30
2023-01-21T16:02:19.018Z,0.35
2023-01-21T16:05:23.545Z,0.38
2023-01-21T16:08:03.244Z,0.33
2023-01-21T16:10:47.094Z,0.29
2023-01-21T16:13:25.041Z,0.28
2023-01-21T16:16:10.289Z,0.29
2023-01-21T16:19:00.794Z,0.30
2023-01-21T16:21:34.482Z,0.30
2023-01-21T16:24:11.189Z,0.31
2023-01-21T16:26:37.791Z,0.32
2023-01-21T16:29:11.199Z,0.36
2023-01-21T16:31:59.403Z,0.30
2023-01-21T16:34:31.765Z,0.37
2023-01-21T16:36:58.386Z,0.39
2023-01-21T16:39:25.962Z,0.30
2023-01-21T16:42:06.564Z,0.38
2023-01-21T16:44:34.323Z,0.33
2023-01-21T16:47:02.478Z,0.27
2023-01-21T16:49:29.319Z,0.29
2023-01-21T16:52:00.460Z,0.29
2023-01-21T16:54:31.871Z,0.23
2023-01-21T16:57:03.798Z,0.17
2023-01-21T16:59:41.082Z,0.16
2023-01-21T17:02:32.954Z,0.10
2023-01-21T17:05:04.468Z,0.08
2023-01-21T17:07:35.546Z,0.06
2023-01-21T17:10:04.507Z,0.02
2023-01-21T17:12:33.631Z,-0.06
2023-01-21T17:15:07.926Z,-0.04
2023-01-21T17:17:36.176Z,-0.06
2023-01-21T17:20:03.485Z,-0.07
2023-01-21T17:22:34.733Z,-0.16
2023-01-21T17:25:08.381Z,-0.10
2023-01-21T17:27:37.993Z,-0.13
2023-01-21T17:30:32.106Z,-0.15
2023-01-21T17:33:01.077Z,-0.18
2023-01-21T17:35:29.441Z,-0.17
2023-01-21T17:38:01.461Z,-0.20
2023-01-21T17:40:32.964Z,-0.20
2023-01-21T17:43:04.271Z,-0.21
2023-01-21T17:45:35.685Z,-0.29
2023-01-21T17:48:14.098Z,-0.28
2023-01-21T17:50:46.810Z,-0.24
2023-01-21T17:53:27.829Z,-0.26
2023-01-21T17:56:06.071Z,-0.28
2023-01-21T17:58:32.561Z,-0.25
2023-01-21T18:01:04.269Z,-0.31
2023-01-21T18:03:30.795Z,-0.33
2023-01-21T18:05:57.609Z,-0.29
2023-01-21T18:08:24.656Z,-0.30
2023-01-21T18:10:51.162Z,-0.28
2023-01-21T18:13:18.889Z,-0.26
2023-01-21T18:15:46.526Z,-0.30
2023-01-21T18:18:27.034Z,-0.28
2023-01-21T18:20:53.655Z,-0.29
2023-01-21T18:23:20.344Z,-0.28
2023-01-21T18:25:49.634Z,-0.40
2023-01-21T18:28:28.402Z,-0.30
2023-01-21T18:30:57.420Z,-0.33
2023-01-21T18:33:24.539Z,-0.30
2023-01-21T18:35:52.166Z,-0.29
2023-01-21T18:38:22.297Z,-0.31
2023-01-21T18:40:48.827Z,-0.31
2023-01-21T18:43:15.378Z,-0.31
2023-01-21T18:45:41.852Z,-0.33
2023-01-21T18:48:14.331Z,-0.36
2023-01-21T18:50:40.893Z,-0.35
2023-01-21T18:53:07.978Z,-0.33
2023-01-21T18:55:35.523Z,-0.35
2023-01-21T18:58:04.490Z,-0.36
2023-01-21T19:00:32.697Z,-0.38
2023-01-21T19:03:01.042Z,-0.33
2023-01-21T19:05:38.442Z,-0.35
2023-01-21T19:08:12.084Z,-0.43
2023-01-21T19:10:38.665Z,-0.37
2023-01-21T19:13:05.143Z,-0.54
2023-01-21T19:15:31.686Z,-0.42
2023-01-21T19:17:58.240Z,-0.39
2023-01-21T19:20:27.597Z,-0.40
2023-01-21T19:22:55.754Z,-0.46
2023-01-21T19:25:25.143Z,-0.43
2023-01-21T19:27:54.407Z,-0.44
2023-01-21T19:30:24.211Z,-0.43
2023-01-21T19:32:52.379Z,-0.49
2023-01-21T19:35:27.568Z,-0.47
2023-01-21T19:37:54.656Z,-0.49
2023-01-21T19:40:26.531Z,-0.49
2023-01-21T19:42:53.284Z,-0.57
2023-01-21T19:45:20.404Z,-0.51
2023-01-21T19:47:49.252Z,-0.57
2023-01-21T19:50:19.954Z,-0.50
2023-01-21T19:52:47.789Z,-0.48
2023-01-21T19:55:16.883Z,-0.53
2023-01-21T19:57:45.563Z,-0.47
2023-01-21T20:00:23.149Z,-0.47
2023-01-21T20:02:49.783Z,-0.56
2023-01-21T20:05:17.050Z,-0.53
2023-01-21T20:07:44.842Z,-0.51
2023-01-21T20:10:37.767Z,-0.51
2023-01-21T20:13:04.939Z,-0.53
2023-01-21T20:15:34.271Z,-0.53
2023-01-21T20:18:03.110Z,-0.52
2023-01-21T20:20:31.922Z,-0.57
2023-01-21T20:22:59.861Z,-0.57
2023-01-21T20:25:36.577Z,-0.60
2023-01-21T20:28:11.587Z,-0.58
2023-01-21T20:30:38.220Z,-0.59
2023-01-21T20:33:04.757Z,-0.58
2023-01-21T20:35:31.320Z,-0.57
2023-01-21T20:37:58.955Z,-0.61
2023-01-21T20:40:30.503Z,-0.58
2023-01-21T20:42:58.041Z,-0.66
2023-01-21T20:45:47.479Z,-0.59
2023-01-21T20:48:35.742Z,-0.58
2023-01-21T20:51:03.214Z,-0.55
2023-01-21T20:53:30.830Z,-0.68
2023-01-21T20:55:59.513Z,-0.54
2023-01-21T20:58:27.992Z,-0.52
2023-01-21T21:00:54.994Z,-0.55
2023-01-21T21:03:21.577Z,-0.50
2023-01-21T21:05:48.980Z,-0.48
2023-01-21T21:08:22.492Z,-0.49
2023-01-21T21:10:52.862Z,-0.48
2023-01-21T21:13:19.378Z,-0.52
2023-01-21T21:15:46.788Z,-0.49
2023-01-21T21:18:14.357Z,-0.50
2023-01-21T21:20:41.553Z,-0.55
2023-01-21T21:23:12.621Z,-0.46
2023-01-21T21:25:40.817Z,-0.46
2023-01-21T21:28:07.358Z,-0.46
2023-01-21T21:30:34.467Z,-0.45
2023-01-21T21:33:01.782Z,-0.45
2023-01-21T21:35:29.625Z,-0.41
2023-01-21T21:37:58.301Z,-0.40
2023-01-21T21:40:27.191Z,-0.39
2023-01-21T21:43:13.437Z,-0.39
2023-01-21T21:46:00.235Z,-0.35
2023-01-21T21:48:39.120Z,-0.40
2023-01-21T21:51:09.836Z,-0.49
2023-01-21T21:53:37.143Z,-0.35
2023-01-21T21:56:05.830Z,-0.34
2023-01-21T21:58:32.418Z,-0.38
2023-01-21T22:01:22.765Z,-0.40
2023-01-21T22:03:49.512Z,-0.34
2023-01-21T22:06:18.275Z,-0.34
2023-01-21T22:08:45.623Z,-0.35
2023-01-21T22:11:17.447Z,-0.34
2023-01-21T22:13:45.682Z,-0.35
2023-01-21T22:16:15.013Z,-0.37
2023-01-21T22:18:42.142Z,-0.38
2023-01-21T22:21:18.437Z,-0.46
2023-01-21T22:23:45.117Z,-0.43
2023-01-21T22:26:15.844Z,-0.41
2023-01-21T22:28:43.512Z,-0.42
2023-01-21T22:31:14.321Z,-0.40
2023-01-21T22:33:40.857Z,-0.43
2023-01-21T22:36:12.876Z,-0.46
2023-01-21T22:38:40.892Z,-0.44
2023-01-21T22:41:09.037Z,-0.41
2023-01-21T22:43:35.561Z,-0.42
2023-01-21T22:46:02.221Z,-0.50
2023-01-21T22:48:30.556Z,-0.41
2023-01-21T22:50:59.125Z,-0.42
2023-01-21T22:53:27.354Z,-0.41
2023-01-21T22:55:58.593Z,-0.40
2023-01-21T22:58:26.876Z,-0.39
2023-01-21T23:00:54.240Z,-0.42
2023-01-21T23:03:21.941Z,-0.44
2023-01-21T23:05:49.171Z,-0.42
2023-01-21T23:08:16.833Z,-0.44
2023-01-21T23:10:44.520Z,-0.45
2023-01-21T23:13:12.943Z,-0.53
2023-01-21T23:15:44.585Z,-0.49
2023-01-21T23:18:13.272Z,-0.47
2023-01-21T23:20:42.041Z,-0.46
2023-01-21T23:23:11.921Z,-0.49
2023-01-21T23:25:41.929Z,-0.52
2023-01-21T23:28:08.631Z,-0.59
2023-01-21T23:30:35.448Z,-0.56
2023-01-21T23:33:01.954Z,-0.64
2023-01-21T23:35:28.973Z,-0.60
2023-01-21T23:37:55.511Z,-0.59
2023-01-21T23:40:21.986Z,-0.61
2023-01-21T23:42:49.397Z,-0.61
2023-01-21T23:45:16.594Z,-0.68
2023-01-21T23:47:43.340Z,-0.64
2023-01-21T23:50:10.383Z,-0.70
2023-01-21T23:52:40.423Z,-0.66
2023-01-21T23:55:09.531Z,-0.69
2023-01-21T23:57:36.651Z,-0.72
